Time;durP1;ratioP1;P1;durP2;ratioP2;P2;SDS_P1;SDS_P2;PMS_P1;PMS_P2;Temp;Humidity;BMP_temperature;BMP_pressure;BME280_temperature;BME280_humidity;BME280_pressure;Samples;Min_cycle;Max_cycle;Signal;HPM_P1;HPM_P2
2023/09/11 00:11:56;;;;;;;11.00;5.73;;;;;;;18.56;100.00;100655.69;31493777;28;20044;-76
2023/09/11 00:26:58;;;;;;;11.70;6.07;;;;;;;18.47;100.00;100650.19;31506937;28;20079;-77
2023/09/11 00:42:00;;;;;;;11.30;6.03;;;;;;;18.32;100.00;100635.53;31493811;28;20052;-75
2023/09/11 00:57:02;;;;;;;11.87;6.10;;;;;;;18.17;100.00;100616.16;31493175;28;20053;-77
2023/09/11 01:12:05;;;;;;;14.70;5.73;;;;;;;18.10;100.00;100610.22;31490257;28;20049;-76
2023/09/11 01:27:43;;;;;;;10.73;6.50;;;;;;;18.09;100.00;100603.19;31491265;28;20084;-75
2023/09/11 01:42:53;;;;;;;15.23;7.80;;;;;;;18.02;100.00;100602.25;31484437;28;20143;-76
2023/09/11 01:57:55;;;;;;;12.30;5.93;;;;;;;18.00;100.00;100599.19;31499935;28;20056;-75
2023/09/11 02:12:57;;;;;;;12.83;6.53;;;;;;;18.11;100.00;100595.25;31497825;28;20486;-76
2023/09/11 02:27:59;;;;;;;19.37;8.33;;;;;;;18.03;100.00;100581.81;31493320;28;20600;-76
2023/09/11 02:43:02;;;;;;;12.93;7.03;;;;;;;17.78;100.00;100584.84;31485996;28;20418;-76
2023/09/11 02:58:05;;;;;;;12.90;6.60;;;;;;;17.72;100.00;100572.94;31474737;28;20494;-76
2023/09/11 03:13:07;;;;;;;19.57;6.87;;;;;;;17.78;100.00;100576.59;31471349;28;20048;-76
2023/09/11 03:28:09;;;;;;;17.30;6.07;;;;;;;17.75;100.00;100574.75;31475929;28;20075;-75
2023/09/11 03:43:11;;;;;;;14.07;6.77;;;;;;;17.84;100.00;100574.78;31471423;28;20476;-76
2023/09/11 03:58:13;;;;;;;17.83;9.03;;;;;;;17.96;100.00;100562.13;31473983;28;20116;-76
2023/09/11 04:13:15;;;;;;;15.90;7.07;;;;;;;18.20;100.00;100571.25;31473027;28;20048;-77
2023/09/11 04:28:17;;;;;;;14.67;7.30;;;;;;;18.67;100.00;100601.00;31468940;28;20087;-76
2023/09/11 04:43:19;;;;;;;54.30;8.90;;;;;;;19.32;100.00;100610.59;31463534;28;20076;-77
2023/09/11 04:58:21;;;;;;;13.70;7.10;;;;;;;19.90;100.00;100614.09;31480577;28;20052;-81
2023/09/11 05:13:23;;;;;;;15.10;7.47;;;;;;;20.68;100.00;100615.59;31480407;28;20051;-79
2023/09/11 05:28:25;;;;;;;16.60;7.63;;;;;;;21.54;99.98;100628.22;31486124;28;20144;-77
2023/09/11 05:43:28;;;;;;;15.25;8.07;;;;;;;22.36;95.02;100632.53;31461143;28;20045;-78
2023/09/11 05:58:37;;;;;;;15.75;6.95;;;;;;;23.58;90.23;100651.47;31476344;28;20052;-77
2023/09/11 06:13:41;;;;;;;13.15;5.75;;;;;;;24.78;79.62;100670.31;31480555;28;20486;-80
2023/09/11 06:28:43;;;;;;;15.87;10.33;;;;;;;26.00;69.33;100686.13;31501319;28;20473;-79
2023/09/11 06:43:46;;;;;;;9.50;4.93;;;;;;;27.05;63.71;100683.28;31484790;28;20509;-81
2023/09/11 06:58:48;;;;;;;12.40;6.03;;;;;;;27.70;59.75;100683.19;31481790;28;20044;-79
2023/09/11 07:13:54;;;;;;;7.20;4.20;;;;;;;28.34;56.44;100688.31;31481333;28;20080;-80
2023/09/11 07:29:06;;;;;;;14.05;7.22;;;;;;;29.08;51.81;100669.91;31473410;28;20055;-82
2023/09/11 07:44:08;;;;;;;9.27;4.60;;;;;;;29.94;50.53;100674.97;31464959;28;20048;-80
2023/09/11 07:59:10;;;;;;;8.93;5.07;;;;;;;30.88;47.22;100662.22;31477362;28;20084;-79
2023/09/11 08:14:12;;;;;;;5.07;3.47;;;;;;;31.38;44.65;100653.31;31514563;28;20063;-85
2023/09/11 08:29:15;;;;;;;8.55;5.53;;;;;;;31.84;43.27;100645.16;31508321;28;20059;-85
2023/09/11 08:44:17;;;;;;;11.68;5.93;;;;;;;32.42;41.93;100638.06;31509646;28;20044;-75
2023/09/11 08:59:21;;;;;;;10.88;6.53;;;;;;;32.74;39.12;100617.91;31504589;28;20072;-78
2023/09/11 09:14:28;;;;;;;15.55;7.53;;;;;;;33.51;38.83;100611.66;31523105;28;20048;-79
2023/09/11 09:29:36;;;;;;;14.98;6.80;;;;;;;33.35;37.27;100601.00;31485991;28;20143;-76
2023/09/11 09:44:41;;;;;;;10.25;5.80;;;;;;;33.80;35.80;100574.78;31497209;28;20087;-77
2023/09/11 09:59:53;;;;;;;18.83;9.15;;;;;;;33.53;35.28;100572.44;31482581;28;20044;-73
2023/09/11 10:14:56;;;;;;;23.67;11.02;;;;;;;33.85;34.80;100562.56;31489934;28;20076;-83
2023/09/11 10:30:06;;;;;;;18.85;8.80;;;;;;;34.46;33.55;100540.41;31539884;28;20053;-86
2023/09/11 10:45:32;;;;;;;14.02;8.25;;;;;;;34.65;32.45;100528.59;31551262;28;20062;-87
2023/09/11 11:00:38;;;;;;;10.55;5.07;;;;;;;34.62;32.32;100510.00;31561441;28;20059;-86
2023/09/11 11:15:41;;;;;;;8.13;4.07;;;;;;;35.20;32.81;100507.72;31584454;28;20046;-85
2023/09/11 11:30:44;;;;;;;4.43;3.10;;;;;;;35.77;31.13;100495.38;31482031;28;20075;-80
2023/09/11 11:45:47;;;;;;;5.57;3.70;;;;;;;36.04;31.34;100473.50;31478678;28;20049;-80
2023/09/11 12:01:01;;;;;;;6.75;3.00;;;;;;;32.34;32.24;100469.53;31468833;28;20094;-72
2023/09/11 12:16:03;;;;;;;10.48;6.38;;;;;;;30.97;34.60;100457.84;31463842;28;20048;-72
2023/09/11 12:31:06;;;;;;;7.95;2.63;;;;;;;30.05;35.84;100450.81;31467622;28;20153;-71
2023/09/11 12:46:10;;;;;;;9.38;4.50;;;;;;;29.26;36.61;100451.06;31463491;28;20048;-72
2023/09/11 13:01:13;;;;;;;11.75;5.00;;;;;;;28.49;38.95;100442.88;31443226;28;20049;-72
2023/09/11 13:16:15;;;;;;;;;;;;;;;28.56;37.81;100433.84;31474477;28;20479;-73
2023/09/11 13:31:17;;;;;;;3.58;2.42;;;;;;;28.47;37.74;100428.69;31488688;28;19971;-74
2023/09/11 13:46:19;;;;;;;7.10;3.70;;;;;;;28.17;38.32;100421.28;31486045;28;20079;-76
2023/09/11 14:01:21;;;;;;;;;;;;;;;27.91;40.16;100424.00;31488501;28;20507;-74
2023/09/11 14:16:23;;;;;;;12.90;3.35;;;;;;;27.89;40.05;100415.41;31477664;28;19942;-73
2023/09/11 14:31:27;;;;;;;7.43;4.30;;;;;;;27.70;40.48;100420.28;31465908;28;20063;-74
2023/09/11 14:46:30;;;;;;;28.08;16.38;;;;;;;27.50;40.80;100419.53;31472641;28;20139;-74
2023/09/11 15:01:35;;;;;;;11.77;5.72;;;;;;;27.20;42.73;100410.56;31472053;28;20052;-75
2023/09/11 15:16:37;;;;;;;7.35;4.55;;;;;;;26.92;43.71;100418.50;31473446;28;20093;-73
2023/09/11 15:31:39;;;;;;;9.07;4.50;;;;;;;26.49;44.57;100413.63;31503428;28;20056;-76
2023/09/11 15:46:43;;;;;;;15.35;6.35;;;;;;;26.20;45.28;100408.84;31479879;28;20529;-80
2023/09/11 16:01:45;;;;;;;11.03;5.90;;;;;;;26.00;45.68;100407.97;31469229;28;20106;-79
2023/09/11 16:16:50;;;;;;;23.00;13.10;;;;;;;25.66;46.81;100417.84;31477546;28;20056;-78
2023/09/11 16:31:52;;;;;;;10.70;5.55;;;;;;;25.43;46.64;100428.31;31489009;28;20084;-80
2023/09/11 16:46:54;;;;;;;10.82;6.30;;;;;;;25.22;46.84;100435.47;31484636;28;20110;-78
2023/09/11 17:01:59;;;;;;;15.55;6.70;;;;;;;24.98;47.55;100436.06;31500871;28;20049;-77
2023/09/11 17:17:02;;;;;;;13.43;7.43;;;;;;;24.71;48.16;100448.75;31499426;28;20452;-77
2023/09/11 17:32:04;;;;;;;31.17;13.82;;;;;;;24.60;48.61;100446.72;31507179;28;20044;-78
2023/09/11 17:47:06;;;;;;;17.97;10.60;;;;;;;24.27;48.86;100450.31;31501056;28;20106;-80
2023/09/11 18:02:09;;;;;;;20.08;11.70;;;;;;;24.15;49.20;100449.50;31509251;28;20071;-78
2023/09/11 18:17:11;;;;;;;22.02;11.10;;;;;;;24.00;49.74;100448.25;31508878;28;20057;-80
2023/09/11 18:32:13;;;;;;;17.23;8.23;;;;;;;23.84;50.27;100458.06;31516716;28;20491;-78
2023/09/11 18:47:15;;;;;;;12.68;7.75;;;;;;;23.53;51.09;100455.47;31483388;28;20054;-79
2023/09/11 19:02:17;;;;;;;14.13;8.25;;;;;;;23.34;51.77;100455.88;31483608;28;20048;-78
2023/09/11 19:17:19;;;;;;;31.63;17.02;;;;;;;23.19;52.28;100460.84;31475987;28;20052;-79
2023/09/11 19:32:21;;;;;;;13.02;7.53;;;;;;;23.16;52.67;100467.38;31483863;28;20051;-80
2023/09/11 19:47:24;;;;;;;19.27;8.93;;;;;;;22.97;53.52;100467.03;31466251;28;20399;-77
2023/09/11 20:02:27;;;;;;;23.20;8.03;;;;;;;22.87;53.91;100462.19;31471814;28;20421;-77
2023/09/11 20:17:30;;;;;;;18.03;9.03;;;;;;;22.75;54.72;100466.88;31490066;28;20056;-77
2023/09/11 20:32:32;;;;;;;16.25;7.68;;;;;;;22.74;54.83;100452.28;31490780;28;20053;-78
2023/09/11 20:47:37;;;;;;;14.63;7.80;;;;;;;22.43;56.17;100460.63;31513416;28;20044;-77
2023/09/11 21:02:39;;;;;;;15.85;7.30;;;;;;;22.25;56.83;100455.44;31497543;28;20475;-77
2023/09/11 21:17:41;;;;;;;15.18;8.15;;;;;;;22.19;57.51;100449.88;31507956;28;20048;-77
2023/09/11 21:32:45;;;;;;;16.33;7.65;;;;;;;22.23;58.10;100452.41;31483561;28;20055;-77
2023/09/11 21:48:39;;;;;;;18.83;8.47;;;;;;;21.98;59.77;100451.91;31484307;28;20056;-80
2023/09/11 22:03:42;;;;;;;;;;;;;;;21.82;62.77;100446.97;31468796;28;20045;-77
2023/09/11 22:18:45;;;;;;;21.17;9.88;;;;;;;21.73;61.36;100441.63;31482393;28;19920;-77
2023/09/11 22:33:47;;;;;;;16.52;9.20;;;;;;;21.61;63.19;100451.78;31471738;28;20095;-77
2023/09/11 22:48:49;;;;;;;15.40;8.05;;;;;;;21.46;63.85;100442.84;31474411;28;20402;-76
2023/09/11 23:03:52;;;;;;;15.43;7.85;;;;;;;21.45;64.42;100444.09;31482475;28;20056;-77
2023/09/11 23:18:54;;;;;;;12.88;7.03;;;;;;;21.42;65.47;100429.25;31488245;28;20082;-77
2023/09/11 23:33:57;;;;;;;13.07;6.95;;;;;;;21.26;66.25;100427.03;31477799;28;20051;-78
2023/09/11 23:48:59;;;;;;;13.85;6.63;;;;;;;21.18;67.26;100433.44;31477488;28;20075;-79
